Time;durP1;ratioP1;P1;durP2;ratioP2;P2;SDS_P1;SDS_P2;PMS_P1;PMS_P2;Temp;Humidity;BMP_temperature;BMP_pressure;BME280_temperature;BME280_humidity;BME280_pressure;Samples;Min_cycle;Max_cycle;Signal;HPM_P1;HPM_P2
2023/02/12 00:02:07;;;;;;;20.40;7.38;;;;;;;11.85;68.87;103011.94;5029138;27;98659;-72
2023/02/12 00:04:34;;;;;;;23.02;7.22;;;;;;;11.77;68.81;103008.44;5022998;27;99188;-71
2023/02/12 00:07:01;;;;;;;21.25;6.55;;;;;;;11.80;68.83;103011.09;5034497;27;98806;-71
2023/02/12 00:09:27;;;;;;;17.20;6.55;;;;;;;11.76;68.86;103006.69;5024014;27;96754;-71
2023/02/12 00:11:53;;;;;;;31.08;6.80;;;;;;;11.69;69.19;103011.97;5034438;27;97092;-73
2023/02/12 00:14:21;;;;;;;18.42;5.72;;;;;;;11.89;68.49;103029.56;5028457;27;99171;-72
2023/02/12 00:16:47;;;;;;;17.00;6.03;;;;;;;11.83;68.25;103026.06;5020172;27;99077;-72
2023/02/12 00:19:14;;;;;;;22.42;6.50;;;;;;;11.76;68.23;103027.88;5017099;28;99275;-70
2023/02/12 00:21:40;;;;;;;23.90;7.05;;;;;;;11.98;67.98;103032.19;5029458;27;97342;-72
2023/02/12 00:24:07;;;;;;;22.25;5.53;;;;;;;12.03;67.42;103025.97;5014102;27;98971;-72
2023/02/12 00:26:33;;;;;;;24.80;7.10;;;;;;;12.08;67.27;103030.34;5027658;27;98845;-72
2023/02/12 00:29:00;;;;;;;17.25;6.07;;;;;;;12.11;67.09;103040.94;5028621;27;97454;-72
2023/02/12 00:31:30;;;;;;;22.23;5.78;;;;;;;12.10;66.99;103039.19;5024380;27;97678;-71
2023/02/12 00:33:58;;;;;;;20.63;5.78;;;;;;;11.96;67.58;103038.38;5018202;27;99313;-72
2023/02/12 00:36:28;;;;;;;22.20;5.93;;;;;;;11.68;68.18;103034.06;5024288;28;99059;-72
2023/02/12 00:38:55;;;;;;;17.90;6.25;;;;;;;11.57;68.86;103031.44;5027851;28;97575;-72
2023/02/12 00:41:22;;;;;;;21.40;5.95;;;;;;;11.51;69.12;103036.75;5026764;28;97270;-72
2023/02/12 00:43:48;;;;;;;22.17;6.20;;;;;;;11.48;69.45;103032.38;5017130;28;100717;-72
2023/02/12 00:46:15;;;;;;;20.98;5.55;;;;;;;11.49;69.82;103035.88;5025987;28;97754;-73
2023/02/12 00:48:43;;;;;;;18.65;6.10;;;;;;;11.57;69.10;103037.63;5025349;28;98259;-75
2023/02/12 00:51:09;;;;;;;17.95;5.22;;;;;;;11.43;69.35;103039.41;5021371;28;97709;-72
2023/02/12 00:53:36;;;;;;;18.15;6.10;;;;;;;11.58;69.17;103039.38;5028883;27;96939;-70
2023/02/12 00:56:03;;;;;;;21.63;5.47;;;;;;;11.57;69.01;103042.91;5026640;28;99186;-69
2023/02/12 00:58:30;;;;;;;21.58;6.18;;;;;;;11.39;69.15;103040.34;5021176;28;97578;-69
2023/02/12 01:00:56;;;;;;;19.02;5.68;;;;;;;11.50;68.82;103046.47;5030130;28;97202;-69
2023/02/12 01:03:23;;;;;;;19.10;5.60;;;;;;;11.55;68.82;103043.81;5023000;28;99442;-69
2023/02/12 01:05:51;;;;;;;17.58;5.45;;;;;;;11.45;69.04;103042.97;5025956;27;98792;-71
2023/02/12 01:08:17;;;;;;;18.80;5.50;;;;;;;11.06;70.40;103051.84;5022456;27;97539;-69
2023/02/12 01:10:44;;;;;;;16.48;4.90;;;;;;;11.36;69.77;103052.69;5028189;27;97041;-68
2023/02/12 01:13:12;;;;;;;20.45;5.13;;;;;;;11.64;68.62;103053.47;5024284;27;97862;-71
2023/02/12 01:15:38;;;;;;;23.85;5.45;;;;;;;11.69;67.75;103057.00;5032336;27;98956;-68
2023/02/12 01:18:05;;;;;;;26.17;5.53;;;;;;;11.86;67.11;103060.50;5033485;27;97790;-69
2023/02/12 01:20:31;;;;;;;22.80;5.80;;;;;;;11.68;67.22;103061.44;5021647;28;97212;-70
2023/02/12 01:23:00;;;;;;;22.05;5.68;;;;;;;11.71;67.82;103061.41;5019606;28;99533;-70
2023/02/12 01:25:27;;;;;;;24.30;5.55;;;;;;;11.58;68.25;103065.88;5029354;27;101168;-69
2023/02/12 01:27:54;;;;;;;20.42;5.00;;;;;;;11.57;67.97;103065.88;5025181;27;97364;-69
2023/02/12 01:30:23;;;;;;;15.80;4.82;;;;;;;11.25;69.64;103076.53;5028830;27;98876;-69
2023/02/12 01:32:49;;;;;;;18.67;4.50;;;;;;;11.34;68.91;103065.06;5031423;27;100827;-70
2023/02/12 01:35:16;;;;;;;21.33;5.10;;;;;;;11.49;68.83;103070.28;5033172;27;98818;-69
2023/02/12 01:37:42;;;;;;;25.02;4.88;;;;;;;11.40;69.00;103068.56;5029969;27;96818;-69
2023/02/12 01:40:19;;;;;;;23.80;4.60;;;;;;;11.21;69.52;103080.06;5029399;27;97053;-69
2023/02/12 01:42:46;;;;;;;23.40;4.68;;;;;;;11.28;69.65;103081.84;5014536;27;97893;-68
2023/02/12 01:45:44;;;;;;;22.90;4.95;;;;;;;11.63;68.12;103088.78;5032748;27;100949;-68
2023/02/12 01:48:11;;;;;;;14.43;4.25;;;;;;;11.50;68.46;103083.53;5024806;27;97525;-72
2023/02/12 01:50:38;;;;;;;18.00;4.47;;;;;;;11.58;68.27;103086.16;5031089;27;98182;-68
2023/02/12 01:53:05;;;;;;;22.63;4.93;;;;;;;11.89;67.17;103097.56;5027019;27;99034;-70
2023/02/12 01:55:33;;;;;;;25.60;5.28;;;;;;;11.67;67.64;103096.75;5031995;27;99155;-69
2023/02/12 01:58:00;;;;;;;21.50;5.53;;;;;;;11.82;67.15;103103.78;5022032;27;97249;-70
2023/02/12 02:00:26;;;;;;;20.58;5.55;;;;;;;11.87;67.18;103097.59;5022356;28;99571;-70
2023/02/12 02:02:55;;;;;;;20.58;5.47;;;;;;;12.02;66.81;103096.63;5030211;27;98966;-70
2023/02/12 02:05:27;;;;;;;17.77;4.47;;;;;;;11.85;66.79;103101.13;5028712;27;100060;-69
2023/02/12 02:07:56;;;;;;;22.75;5.25;;;;;;;12.05;66.46;103104.59;5025823;27;97139;-70
2023/02/12 02:10:23;;;;;;;19.17;5.03;;;;;;;12.01;66.31;103100.19;5017561;28;96868;-70
2023/02/12 02:15:37;;;;;;;19.50;4.90;;;;;;;12.19;66.10;103115.13;5018585;28;97250;-69
2023/02/12 02:18:11;;;;;;;21.60;5.10;;;;;;;12.14;65.75;103109.81;5030097;27;97296;-69
2023/02/12 02:21:14;;;;;;;23.92;5.07;;;;;;;12.32;65.17;103107.09;5029309;28;96813;-69
2023/02/12 02:23:57;;;;;;;21.00;5.32;;;;;;;12.39;65.07;103105.31;5019629;28;101191;-69
2023/02/12 02:26:50;;;;;;;21.35;4.75;;;;;;;12.31;64.88;103102.69;5022599;27;99123;-71
2023/02/12 02:29:42;;;;;;;26.08;5.45;;;;;;;12.48;64.84;103107.00;5016315;27;96841;-69
2023/02/12 02:32:14;;;;;;;24.02;4.20;;;;;;;12.29;65.08;103106.22;5024274;27;96783;-69
2023/02/12 02:34:49;;;;;;;25.45;5.68;;;;;;;12.33;64.92;103100.91;5024191;27;99001;-69
2023/02/12 02:37:19;;;;;;;23.20;5.30;;;;;;;12.35;64.89;103099.13;5029582;27;98743;-69
2023/02/12 02:39:51;;;;;;;20.35;5.68;;;;;;;12.52;64.47;103107.00;5030466;27;96765;-70
2023/02/12 02:42:28;;;;;;;19.83;4.90;;;;;;;12.41;64.48;103099.97;5019756;27;97860;-69
2023/02/12 02:44:59;;;;;;;38.78;5.90;;;;;;;12.46;64.60;103111.44;5023815;27;100191;-69
2023/02/12 02:47:35;;;;;;;15.35;4.53;;;;;;;12.65;63.94;103103.38;5027238;27;99090;-69
2023/02/12 02:50:05;;;;;;;24.60;4.90;;;;;;;12.60;63.78;103104.28;5021738;27;96879;-69
2023/02/12 02:52:38;;;;;;;20.85;4.65;;;;;;;12.67;63.76;103117.47;5025996;27;97102;-68
2023/02/12 02:55:07;;;;;;;17.33;4.65;;;;;;;12.62;63.98;103115.75;5024808;27;99387;-68
2023/02/12 02:57:38;;;;;;;24.60;5.00;;;;;;;12.44;64.12;103114.09;5034440;27;99095;-69
2023/02/12 03:00:13;;;;;;;19.83;5.10;;;;;;;12.21;64.77;103116.88;5019337;27;97085;-69
2023/02/12 03:02:45;;;;;;;27.58;6.55;;;;;;;12.21;65.22;103121.28;5020292;27;97858;-68
2023/02/12 03:05:17;;;;;;;19.55;6.05;;;;;;;12.07;65.67;103124.03;5025589;27;99031;-68
2023/02/12 03:07:51;;;;;;;21.25;4.97;;;;;;;11.89;66.18;103124.06;5027559;27;97934;-69
2023/02/12 03:10:20;;;;;;;22.13;5.10;;;;;;;12.15;65.39;103127.50;5030855;28;96665;-68
2023/02/12 03:12:52;;;;;;;18.10;4.57;;;;;;;12.38;64.75;103133.59;5033731;27;96843;-68
2023/02/12 03:15:23;;;;;;;31.35;5.15;;;;;;;12.51;64.39;103134.41;5028069;27;102401;-68
2023/02/12 03:17:51;;;;;;;22.75;4.72;;;;;;;12.31;64.89;103134.50;5027779;27;98911;-68
2023/02/12 03:20:22;;;;;;;22.88;4.78;;;;;;;12.41;64.28;103137.09;5025055;27;96752;-68
2023/02/12 03:22:53;;;;;;;28.38;5.18;;;;;;;12.16;65.07;103139.88;5031180;27;96916;-69
2023/02/12 03:25:25;;;;;;;19.30;5.13;;;;;;;12.04;65.67;103145.22;5023791;27;100513;-69
2023/02/12 03:27:59;;;;;;;19.85;5.75;;;;;;;12.37;65.17;103146.84;5029797;27;98863;-69
2023/02/12 03:30:37;;;;;;;21.50;5.13;;;;;;;12.39;64.64;103150.38;5028430;27;96784;-69
2023/02/12 03:33:16;;;;;;;26.65;5.97;;;;;;;12.61;63.84;103151.13;5030928;27;97102;-69
2023/02/12 03:35:52;;;;;;;23.27;5.78;;;;;;;12.73;63.38;103143.13;5019165;27;99144;-68
2023/02/12 03:38:26;;;;;;;17.70;4.53;;;;;;;12.22;64.86;103144.25;5025271;27;99071;-69
2023/02/12 03:41:00;;;;;;;21.33;5.03;;;;;;;12.26;64.39;103148.69;5022163;27;98057;-67
2023/02/12 03:43:31;;;;;;;26.63;4.95;;;;;;;12.15;65.24;103156.66;5029746;27;96857;-69
2023/02/12 03:46:04;;;;;;;18.30;5.13;;;;;;;12.27;65.03;103151.28;5024289;27;99652;-68
2023/02/12 03:48:36;;;;;;;20.38;5.35;;;;;;;12.45;64.25;103155.66;5024447;27;98753;-69
2023/02/12 03:51:10;;;;;;;15.63;4.45;;;;;;;12.23;64.63;103148.66;5027075;27;96839;-69
2023/02/12 03:53:36;;;;;;;16.40;4.72;;;;;;;12.08;65.21;103162.00;5028152;27;96797;-69
2023/02/12 03:56:08;;;;;;;28.40;6.65;;;;;;;11.98;65.46;103169.97;5028619;27;98173;-68
2023/02/12 03:58:37;;;;;;;21.63;5.50;;;;;;;11.71;66.32;103159.41;5030745;27;98824;-69
2023/02/12 04:01:04;;;;;;;20.13;5.53;;;;;;;11.94;66.30;103170.88;5032153;27;96888;-69
2023/02/12 04:03:32;;;;;;;26.73;5.50;;;;;;;11.97;65.88;103176.16;5028721;27;98568;-69
2023/02/12 04:05:59;;;;;;;21.55;4.97;;;;;;;11.94;66.01;103172.66;5027743;28;97658;-69
2023/02/12 04:08:27;;;;;;;16.05;5.50;;;;;;;12.10;65.47;103179.66;5023564;27;99163;-70
2023/02/12 04:11:03;;;;;;;22.20;5.47;;;;;;;11.92;65.95;103177.06;5024049;27;97053;-69
2023/02/12 04:13:42;;;;;;;25.35;6.13;;;;;;;11.76;66.55;103181.50;5026392;27;97756;-69
2023/02/12 04:16:19;;;;;;;20.20;4.85;;;;;;;12.08;65.79;103183.22;5016243;28;98916;-69
2023/02/12 04:18:49;;;;;;;21.27;5.30;;;;;;;12.28;65.27;103176.03;5028623;27;98757;-70
2023/02/12 04:21:27;;;;;;;29.10;6.20;;;;;;;12.41;64.26;103182.16;5022909;27;97600;-68
2023/02/12 04:24:06;;;;;;;27.13;5.90;;;;;;;12.23;64.65;103186.66;5021601;27;96816;-69
2023/02/12 04:26:39;;;;;;;22.73;5.93;;;;;;;12.02;65.17;103185.84;5024110;27;99284;-68
2023/02/12 04:29:14;;;;;;;24.67;6.00;;;;;;;12.22;64.72;103184.91;5032690;27;99070;-68
2023/02/12 04:31:48;;;;;;;19.05;5.00;;;;;;;12.02;65.38;103188.50;5028795;27;96768;-70
2023/02/12 04:34:24;;;;;;;19.52;5.70;;;;;;;12.20;64.50;103194.66;5033841;27;97498;-70
2023/02/12 04:36:58;;;;;;;19.38;5.68;;;;;;;11.91;65.85;103192.06;5023025;27;99583;-68
2023/02/12 04:39:28;;;;;;;28.58;5.93;;;;;;;11.92;65.85;103187.66;5025754;28;97855;-68
2023/02/12 04:41:58;;;;;;;25.33;5.22;;;;;;;11.77;66.40;103187.69;5031664;27;97386;-68
2023/02/12 04:44:26;;;;;;;24.42;5.30;;;;;;;11.91;66.04;103192.06;5028285;27;98709;-68
2023/02/12 04:46:53;;;;;;;25.40;5.78;;;;;;;12.06;65.69;103188.50;5016557;27;98698;-68
2023/02/12 04:49:22;;;;;;;19.73;5.72;;;;;;;12.05;65.29;103189.38;5032261;27;98768;-69
2023/02/12 04:51:49;;;;;;;23.98;5.97;;;;;;;12.08;65.22;103180.56;5023820;28;99673;-71
2023/02/12 04:54:17;;;;;;;23.05;6.03;;;;;;;12.36;64.58;103185.72;5027539;27;98825;-71
2023/02/12 04:56:43;;;;;;;22.63;5.97;;;;;;;12.43;63.87;103181.28;5029994;27;99402;-71
2023/02/12 04:59:10;;;;;;;21.95;5.75;;;;;;;12.35;64.42;103183.97;5023253;27;99690;-72
2023/02/12 05:01:38;;;;;;;17.02;5.18;;;;;;;12.24;63.97;103182.25;5023179;27;96971;-71
2023/02/12 05:04:05;;;;;;;22.25;5.07;;;;;;;11.98;65.02;103190.28;5029008;27;97604;-71
2023/02/12 05:06:36;;;;;;;22.45;5.72;;;;;;;11.78;65.58;103179.75;5026803;27;99738;-71
2023/02/12 05:09:03;;;;;;;19.50;5.38;;;;;;;11.87;65.34;103189.44;5035593;27;99527;-68
2023/02/12 05:11:30;;;;;;;25.10;5.85;;;;;;;11.97;64.83;103197.34;5023540;28;97187;-69
2023/02/12 05:13:56;;;;;;;18.13;5.30;;;;;;;12.01;64.81;103187.66;5023106;27;96988;-68
2023/02/12 05:16:23;;;;;;;23.75;5.18;;;;;;;11.84;65.39;103187.66;5023670;28;98935;-69
2023/02/12 05:18:49;;;;;;;28.05;5.75;;;;;;;11.98;64.56;103185.00;5023384;27;98029;-69
2023/02/12 05:21:16;;;;;;;26.20;5.53;;;;;;;12.10;64.29;103198.19;5021722;27;97767;-70
2023/02/12 05:23:44;;;;;;;24.15;4.97;;;;;;;12.20;64.03;103199.94;5026283;27;97061;-69
2023/02/12 05:26:13;;;;;;;21.15;5.18;;;;;;;12.28;63.71;103199.91;5035210;27;99546;-69
2023/02/12 05:28:40;;;;;;;21.45;4.93;;;;;;;12.07;64.09;103192.94;5031201;27;98923;-70
2023/02/12 05:31:09;;;;;;;26.13;5.80;;;;;;;12.25;63.37;103203.47;5028047;27;97394;-69
2023/02/12 05:33:36;;;;;;;27.20;6.03;;;;;;;11.98;64.05;103214.13;5034855;27;97640;-68
2023/02/12 05:36:05;;;;;;;24.77;5.63;;;;;;;12.12;63.94;103207.03;5024123;27;99298;-69
2023/02/12 05:38:32;;;;;;;29.70;5.85;;;;;;;12.34;63.68;103211.34;5018482;27;100680;-69
2023/02/12 05:41:03;;;;;;;31.60;5.38;;;;;;;12.18;63.72;103212.31;5026517;28;97100;-69
2023/02/12 05:43:29;;;;;;;23.27;5.07;;;;;;;11.87;64.34;103219.47;5021523;27;97907;-68
2023/02/12 05:45:58;;;;;;;23.33;5.53;;;;;;;11.94;64.63;103207.97;5024523;27;98928;-69
2023/02/12 05:48:25;;;;;;;26.83;5.78;;;;;;;12.18;64.20;103217.63;5025913;27;98970;-69
2023/02/12 05:50:51;;;;;;;23.40;5.47;;;;;;;12.01;64.71;103214.16;5029143;27;96932;-68
2023/02/12 05:53:17;;;;;;;22.98;5.43;;;;;;;12.02;64.47;103215.00;5029364;27;96931;-69
2023/02/12 05:55:44;;;;;;;20.45;5.22;;;;;;;11.92;64.91;103219.44;5016449;27;99069;-69
2023/02/12 05:58:11;;;;;;;26.20;5.55;;;;;;;11.92;64.86;103206.19;5029889;27;98467;-69
2023/02/12 06:00:38;;;;;;;26.40;5.78;;;;;;;11.88;65.26;103215.91;5028675;27;96787;-69
2023/02/12 06:03:04;;;;;;;30.42;6.00;;;;;;;11.82;65.41;103213.28;5034241;27;96836;-71
2023/02/12 06:05:30;;;;;;;23.05;5.40;;;;;;;11.80;65.77;103219.47;5030246;27;97794;-69
2023/02/12 06:07:57;;;;;;;30.23;6.43;;;;;;;11.87;65.40;103214.16;5026599;27;97801;-69
2023/02/12 06:10:23;;;;;;;26.67;5.72;;;;;;;11.99;65.31;103218.56;5031040;28;96746;-69
2023/02/12 06:12:54;;;;;;;23.73;5.95;;;;;;;11.98;64.92;103225.63;5021344;28;97919;-69
2023/02/12 06:15:22;;;;;;;20.05;5.63;;;;;;;12.20;64.44;103220.28;5023315;28;99470;-70
2023/02/12 06:17:48;;;;;;;26.25;5.68;;;;;;;12.10;64.58;103231.78;5021626;28;98893;-71
2023/02/12 06:20:15;;;;;;;20.65;5.32;;;;;;;12.07;64.31;103224.72;5023427;27;97369;-71
2023/02/12 06:22:41;;;;;;;24.88;5.80;;;;;;;12.11;64.68;103241.50;5025239;28;97264;-71
2023/02/12 06:25:08;;;;;;;24.10;6.22;;;;;;;11.71;65.26;103244.16;5025172;28;100945;-70
2023/02/12 06:27:34;;;;;;;34.47;5.97;;;;;;;11.95;65.00;103246.81;5017613;27;98912;-70
2023/02/12 06:30:00;;;;;;;24.77;5.32;;;;;;;11.94;65.08;103247.72;5018344;27;96906;-72
2023/02/12 06:32:28;;;;;;;30.00;5.65;;;;;;;12.01;64.95;103260.97;5028327;27;97231;-71
2023/02/12 06:34:55;;;;;;;25.95;6.00;;;;;;;11.81;65.17;103267.16;5027004;27;99488;-72
2023/02/12 06:37:21;;;;;;;27.67;5.82;;;;;;;11.79;65.64;103265.38;5028385;28;97984;-70
2023/02/12 06:39:47;;;;;;;26.50;6.63;;;;;;;11.73;65.67;103271.53;5027118;27;97240;-71
2023/02/12 06:42:14;;;;;;;23.63;5.32;;;;;;;11.93;65.34;103271.56;5020856;27;97844;-71
2023/02/12 06:44:40;;;;;;;21.98;5.53;;;;;;;11.88;64.93;103273.34;5024913;27;99222;-72
2023/02/12 06:47:07;;;;;;;31.38;6.13;;;;;;;11.90;64.85;103282.16;5030458;27;97616;-71
2023/02/12 06:49:34;;;;;;;33.20;6.15;;;;;;;12.03;64.31;103285.66;5024134;27;96889;-70
2023/02/12 06:52:01;;;;;;;21.52;5.38;;;;;;;12.18;63.70;103278.59;5022196;27;98532;-71
2023/02/12 06:54:27;;;;;;;29.48;5.90;;;;;;;12.46;62.99;103271.44;5021719;27;99271;-72
2023/02/12 06:56:54;;;;;;;26.98;7.15;;;;;;;12.53;62.27;103288.22;5020303;27;101330;-72
2023/02/12 06:59:20;;;;;;;22.52;5.93;;;;;;;12.63;61.97;103285.50;5023948;27;96780;-73
2023/02/12 07:01:49;;;;;;;32.67;6.55;;;;;;;12.65;61.71;103291.72;5026091;27;96848;-72
2023/02/12 07:04:15;;;;;;;20.85;4.68;;;;;;;12.35;62.37;103284.72;5023320;27;99273;-72
2023/02/12 07:06:43;;;;;;;22.27;5.60;;;;;;;12.47;62.34;103296.19;5023804;27;99340;-72
2023/02/12 07:09:09;;;;;;;17.95;5.32;;;;;;;12.56;61.93;103297.03;5024947;28;97318;-71
2023/02/12 07:11:37;;;;;;;29.42;6.10;;;;;;;12.43;62.45;103294.41;5028433;27;97238;-71
2023/02/12 07:14:03;;;;;;;31.25;5.70;;;;;;;12.18;62.79;103305.09;5024148;27;101712;-71
2023/02/12 07:16:30;;;;;;;29.00;6.70;;;;;;;12.02;63.24;103305.09;5018214;27;99678;-73
2023/02/12 07:18:56;;;;;;;28.65;5.93;;;;;;;12.01;63.38;103301.59;5025200;27;97107;-71
2023/02/12 07:21:23;;;;;;;27.75;5.18;;;;;;;12.02;63.09;103305.97;5028181;27;97748;-71
2023/02/12 07:23:52;;;;;;;24.67;5.22;;;;;;;12.25;63.00;103304.19;5020428;27;99205;-72
2023/02/12 07:26:20;;;;;;;26.63;5.80;;;;;;;11.94;63.11;103308.66;5011972;28;98123;-72
2023/02/12 07:28:47;;;;;;;19.50;5.00;;;;;;;11.94;63.33;103310.44;5018902;27;97077;-71
2023/02/12 07:31:17;;;;;;;33.63;5.78;;;;;;;12.11;63.46;103313.94;5020212;27;97703;-71
2023/02/12 07:33:44;;;;;;;30.52;5.80;;;;;;;11.96;63.71;103311.28;5023705;27;98886;-72
2023/02/12 07:36:12;;;;;;;29.77;5.35;;;;;;;11.75;64.03;103308.66;5023690;27;98776;-71
2023/02/12 07:38:39;;;;;;;23.73;5.53;;;;;;;12.13;63.11;103317.47;5017119;27;97618;-69
2023/02/12 07:41:12;;;;;;;17.17;4.47;;;;;;;11.93;63.61;103317.50;5025373;27;96866;-71
2023/02/12 07:43:39;;;;;;;24.40;6.25;;;;;;;12.08;62.63;103310.41;5022492;27;98928;-71
2023/02/12 07:46:08;;;;;;;25.40;5.40;;;;;;;12.15;62.76;103312.16;5023211;27;98753;-70
2023/02/12 07:48:35;;;;;;;29.70;5.43;;;;;;;12.59;61.52;103314.72;5028303;27;97246;-71
2023/02/12 07:51:04;;;;;;;27.30;5.63;;;;;;;12.53;60.77;103312.09;5032859;27;97059;-72
2023/02/12 07:53:34;;;;;;;29.00;6.35;;;;;;;12.71;60.34;103307.59;5032348;27;98178;-71
2023/02/12 07:56:11;;;;;;;21.48;4.47;;;;;;;12.73;60.09;103315.56;5028700;27;100865;-73
2023/02/12 07:58:38;;;;;;;18.58;4.65;;;;;;;12.83;59.80;103314.63;5028552;27;98595;-71
2023/02/12 08:01:13;;;;;;;21.35;4.57;;;;;;;12.66;60.07;103329.72;5026662;27;97814;-71
2023/02/12 08:03:39;;;;;;;16.85;4.38;;;;;;;12.58;60.67;103331.50;5020499;27;99057;-72
2023/02/12 08:06:10;;;;;;;25.95;4.47;;;;;;;12.71;59.87;103334.13;5028711;27;101622;-73
2023/02/12 08:08:37;;;;;;;23.10;5.10;;;;;;;12.43;60.63;103331.53;5033309;28;97008;-69
2023/02/12 08:11:05;;;;;;;22.40;4.93;;;;;;;12.72;59.91;103322.63;5023860;27;97224;-69
2023/02/12 08:13:33;;;;;;;17.52;5.25;;;;;;;12.69;59.77;103327.03;5013404;27;99695;-70
2023/02/12 08:16:00;;;;;;;25.10;5.15;;;;;;;12.52;60.18;103334.19;5030454;27;99047;-70
2023/02/12 08:18:30;;;;;;;22.75;4.65;;;;;;;12.50;60.21;103341.25;5025738;27;97446;-70
2023/02/12 08:21:01;;;;;;;20.55;4.38;;;;;;;12.29;60.84;103343.06;5020439;27;98590;-71
2023/02/12 08:23:27;;;;;;;19.65;5.10;;;;;;;12.52;60.17;103337.72;5024517;27;98221;-70
2023/02/12 08:25:54;;;;;;;23.83;5.10;;;;;;;12.95;59.59;103350.81;5023378;28;98808;-71
2023/02/12 08:28:22;;;;;;;23.75;4.35;;;;;;;12.81;59.24;103345.56;5020028;27;98372;-73
2023/02/12 08:30:50;;;;;;;26.52;4.85;;;;;;;13.09;58.59;103352.53;5028542;27;97343;-73
2023/02/12 08:33:16;;;;;;;27.88;4.55;;;;;;;12.89;58.57;103346.44;5028753;27;98858;-72
2023/02/12 08:35:43;;;;;;;18.75;4.88;;;;;;;12.82;58.58;103349.09;5025369;27;98099;-72
2023/02/12 08:38:09;;;;;;;26.50;4.13;;;;;;;12.51;59.12;103356.28;5027610;27;99002;-72
2023/02/12 08:40:35;;;;;;;20.67;4.88;;;;;;;12.87;58.77;103357.94;5027709;27;99367;-72
2023/02/12 08:43:02;;;;;;;21.15;4.95;;;;;;;12.74;58.71;103368.59;5022178;27;98909;-72
2023/02/12 08:45:28;;;;;;;20.92;4.53;;;;;;;12.83;58.50;103367.69;5027211;27;99877;-71
2023/02/12 08:47:56;;;;;;;24.20;4.90;;;;;;;12.84;58.52;103372.09;5028001;27;98108;-72
2023/02/12 08:50:23;;;;;;;19.48;5.85;;;;;;;13.06;58.21;103376.44;5026275;27;98952;-72
2023/02/12 08:52:52;;;;;;;17.65;3.78;;;;;;;13.06;57.88;103378.22;5023727;27;100243;-71
2023/02/12 08:55:18;;;;;;;18.35;4.28;;;;;;;12.72;59.26;103378.34;5025996;27;101438;-71
2023/02/12 08:57:45;;;;;;;21.30;4.93;;;;;;;12.42;59.96;103388.13;5027928;27;97190;-72
2023/02/12 09:00:12;;;;;;;18.58;4.97;;;;;;;12.30;60.98;103397.84;5024355;27;97323;-71
2023/02/12 09:02:38;;;;;;;24.33;5.95;;;;;;;12.20;61.25;103389.91;5025008;27;99302;-71
2023/02/12 09:05:06;;;;;;;23.75;5.47;;;;;;;12.71;60.05;103384.53;5028317;27;99142;-72
2023/02/12 09:07:33;;;;;;;20.50;4.20;;;;;;;12.50;60.93;103396.94;5022245;27;98312;-73
2023/02/12 09:09:59;;;;;;;24.67;5.07;;;;;;;12.57;60.85;103396.06;5029617;27;97031;-71
2023/02/12 09:12:26;;;;;;;22.30;5.93;;;;;;;12.89;60.38;103394.19;5015707;27;99833;-74
2023/02/12 09:14:53;;;;;;;15.07;4.80;;;;;;;13.10;59.82;103391.47;5019015;27;100969;-72
2023/02/12 09:17:20;;;;;;;24.98;4.15;;;;;;;12.75;60.24;103396.00;5016562;28;97728;-72
2023/02/12 09:19:47;;;;;;;22.55;5.05;;;;;;;13.36;59.46;103398.47;5029549;28;96978;-72
2023/02/12 09:22:15;;;;;;;26.50;5.38;;;;;;;13.04;60.00;103398.56;5027881;28;97927;-72
2023/02/12 09:24:42;;;;;;;25.20;5.35;;;;;;;13.16;59.60;103404.75;5023385;27;99160;-72
2023/02/12 09:27:11;;;;;;;28.60;5.70;;;;;;;13.49;58.98;103409.00;5027651;27;98527;-72
2023/02/12 09:29:38;;;;;;;26.42;5.72;;;;;;;13.44;58.72;103407.28;5016459;28;97612;-71
2023/02/12 09:32:05;;;;;;;16.45;4.80;;;;;;;13.54;59.00;103406.31;5018461;27;101300;-72
2023/02/12 09:34:34;;;;;;;30.25;6.35;;;;;;;13.63;58.19;103413.38;5018551;27;99980;-70
2023/02/12 09:37:01;;;;;;;28.30;6.45;;;;;;;13.40;58.78;103417.03;5025139;27;97224;-72
2023/02/12 09:39:32;;;;;;;17.83;5.13;;;;;;;13.26;59.38;103418.84;5019139;27;97502;-71
2023/02/12 09:42:25;;;;;;;29.80;6.15;;;;;;;12.64;61.24;103424.34;5026669;27;99031;-73
2023/02/12 09:44:58;;;;;;;21.27;5.85;;;;;;;13.02;60.69;103416.28;5023325;27;98879;-74
2023/02/12 09:47:32;;;;;;;19.33;5.20;;;;;;;13.06;60.69;103424.22;5020222;27;97181;-72
2023/02/12 09:50:10;;;;;;;23.27;5.43;;;;;;;13.45;59.69;103428.53;5025817;27;96904;-72
2023/02/12 09:52:37;;;;;;;28.80;6.60;;;;;;;13.58;58.86;103434.66;5030865;27;99359;-71
2023/02/12 09:55:06;;;;;;;27.15;7.32;;;;;;;13.87;58.49;103427.38;5027836;27;99406;-72
2023/02/12 09:57:35;;;;;;;23.45;5.95;;;;;;;13.88;58.14;103425.59;5026001;27;97149;-72
2023/02/12 10:00:06;;;;;;;31.48;6.70;;;;;;;13.82;58.48;103429.19;5021395;28;97450;-71
2023/02/12 10:02:35;;;;;;;32.58;8.13;;;;;;;13.41;60.25;103428.53;5024253;27;101103;-71
2023/02/12 10:05:02;;;;;;;30.17;7.22;;;;;;;13.37;60.79;103424.13;5019916;27;99470;-71
2023/02/12 10:07:53;;;;;;;31.63;7.90;;;;;;;13.42;60.77;103428.53;5013130;27;99683;-72
2023/02/12 10:10:34;;;;;;;24.17;7.40;;;;;;;13.72;60.17;103430.13;5000617;27;97002;-72
2023/02/12 10:13:04;;;;;;;22.27;7.15;;;;;;;13.73;59.69;103429.22;5024835;27;98937;-72
2023/02/12 10:15:37;;;;;;;25.77;6.53;;;;;;;13.80;59.45;103428.31;5012167;27;97483;-71
2023/02/12 10:18:29;;;;;;;27.48;6.88;;;;;;;13.63;59.58;103424.88;5015488;28;97156;-70
2023/02/12 10:21:10;;;;;;;28.75;6.57;;;;;;;13.64;60.03;103425.75;5020350;28;97060;-70
2023/02/12 10:23:51;;;;;;;24.88;7.20;;;;;;;13.98;59.12;103421.13;5029217;27;99044;-74
2023/02/12 10:26:25;;;;;;;31.23;10.20;;;;;;;13.86;59.18;103425.59;5020668;27;98772;-73
2023/02/12 10:28:54;;;;;;;27.10;7.07;;;;;;;13.51;60.89;103422.28;5017790;28;97396;-72
2023/02/12 10:31:26;;;;;;;25.40;6.57;;;;;;;13.24;62.26;103422.44;5022998;27;97109;-72
2023/02/12 10:33:55;;;;;;;28.52;6.75;;;;;;;13.19;62.50;103425.09;5025976;27;99258;-72
2023/02/12 10:36:37;;;;;;;26.65;7.43;;;;;;;13.19;63.01;103424.22;5017413;27;99469;-71
2023/02/12 10:39:12;;;;;;;23.23;8.25;;;;;;;13.24;62.94;103430.38;5017383;27;99724;-71
2023/02/12 10:41:47;;;;;;;19.30;7.22;;;;;;;13.19;63.27;103429.53;5016308;27;96890;-72
2023/02/12 10:44:13;;;;;;;26.20;7.97;;;;;;;13.24;63.45;103430.38;5011828;27;99113;-70
2023/02/12 10:46:40;;;;;;;24.58;7.40;;;;;;;12.53;66.32;103436.75;5010165;27;102085;-67
2023/02/12 10:49:12;;;;;;;21.23;7.38;;;;;;;12.74;66.11;103440.22;5016444;27;98872;-69
2023/02/12 10:51:48;;;;;;;24.48;8.02;;;;;;;12.96;65.36;103435.75;5016181;27;96897;-72
2023/02/12 10:54:38;;;;;;;17.52;7.10;;;;;;;13.30;64.42;103431.25;5024593;27;99608;-71
2023/02/12 10:57:11;;;;;;;19.13;8.07;;;;;;;13.35;64.08;103424.13;5027099;27;99205;-69
2023/02/12 10:59:38;;;;;;;30.20;9.25;;;;;;;13.62;63.41;103422.22;5023639;27;97053;-71
2023/02/12 11:02:17;;;;;;;21.48;7.68;;;;;;;13.43;63.03;103429.41;5018206;27;97703;-70
2023/02/12 11:04:47;;;;;;;18.35;7.90;;;;;;;13.50;62.89;103420.53;5018644;27;101516;-73
2023/02/12 11:07:13;;;;;;;23.83;7.70;;;;;;;13.38;63.19;103425.91;5022728;27;98616;-71
2023/02/12 11:09:44;;;;;;;20.48;8.10;;;;;;;13.18;64.05;103427.75;5020304;27;97389;-70
2023/02/12 11:12:20;;;;;;;16.65;7.28;;;;;;;13.16;64.06;103426.00;5025805;27;99244;-70
2023/02/12 11:14:49;;;;;;;21.75;8.48;;;;;;;13.21;64.04;103427.72;5021868;27;99225;-71
2023/02/12 11:17:24;;;;;;;19.23;7.45;;;;;;;12.84;64.90;103430.47;5027657;27;99133;-72
2023/02/12 11:20:03;;;;;;;17.52;8.43;;;;;;;12.81;65.73;103429.59;5023982;27;97110;-71
2023/02/12 11:22:29;;;;;;;23.20;8.45;;;;;;;12.97;65.03;103418.06;5029571;27;97241;-72
2023/02/12 11:25:01;;;;;;;20.77;7.63;;;;;;;13.08;64.87;103422.44;5021057;27;99265;-72
2023/02/12 11:27:31;;;;;;;18.67;8.60;;;;;;;13.15;64.59;103418.03;5018012;27;100865;-70
2023/02/12 11:30:17;;;;;;;20.88;7.85;;;;;;;13.34;63.50;103417.06;5023998;27;97915;-72
2023/02/12 11:32:45;;;;;;;22.73;8.88;;;;;;;13.25;63.90;103425.09;5024716;27;97687;-72